sensor_id;sensor_type;location;lat;lon;timestamp;pressure;altitude;pressure_sealevel;temperature;humidity
17383;BME280;8809;51.892;8.384;2024-02-26T00:01:14;99088.16;;;5.21;100.00
17383;BME280;8809;51.892;8.384;2024-02-26T00:03:41;99096.09;;;5.04;100.00
17383;BME280;8809;51.892;8.384;2024-02-26T00:06:10;99099.78;;;5.10;100.00
17383;BME280;8809;51.892;8.384;2024-02-26T00:08:37;99106.19;;;4.98;100.00
17383;BME280;8809;51.892;8.384;2024-02-26T00:11:05;99102.31;;;4.87;100.00
17383;BME280;8809;51.892;8.384;2024-02-26T00:13:32;99096.56;;;4.94;100.00
17383;BME280;8809;51.892;8.384;2024-02-26T00:15:58;99095.94;;;4.99;100.00
17383;BME280;8809;51.892;8.384;2024-02-26T00:18:27;99090.00;;;4.81;100.00
17383;BME280;8809;51.892;8.384;2024-02-26T00:20:54;99097.31;;;4.91;100.00
17383;BME280;8809;51.892;8.384;2024-02-26T00:23:21;99098.03;;;4.87;100.00
17383;BME280;8809;51.892;8.384;2024-02-26T00:25:49;99099.00;;;4.68;100.00
17383;BME280;8809;51.892;8.384;2024-02-26T00:28:16;99100.75;;;4.69;100.00
17383;BME280;8809;51.892;8.384;2024-02-26T00:30:45;99105.03;;;4.90;100.00
17383;BME280;8809;51.892;8.384;2024-02-26T00:33:12;99095.38;;;4.85;100.00
17383;BME280;8809;51.892;8.384;2024-02-26T00:35:41;99097.75;;;4.81;100.00
17383;BME280;8809;51.892;8.384;2024-02-26T00:38:08;99093.25;;;4.75;100.00
17383;BME280;8809;51.892;8.384;2024-02-26T00:40:36;99092.13;;;4.91;100.00
17383;BME280;8809;51.892;8.384;2024-02-26T00:43:03;99088.78;;;4.94;100.00
17383;BME280;8809;51.892;8.384;2024-02-26T00:45:30;99094.91;;;4.96;100.00
17383;BME280;8809;51.892;8.384;2024-02-26T00:47:57;99093.22;;;4.96;100.00
17383;BME280;8809;51.892;8.384;2024-02-26T00:50:26;99087.38;;;5.02;100.00
17383;BME280;8809;51.892;8.384;2024-02-26T00:52:55;99081.47;;;5.04;100.00
17383;BME280;8809;51.892;8.384;2024-02-26T00:55:22;99088.56;;;5.10;100.00
17383;BME280;8809;51.892;8.384;2024-02-26T00:57:49;99072.13;;;5.08;100.00
17383;BME280;8809;51.892;8.384;2024-02-26T01:00:16;99073.13;;;5.11;100.00
17383;BME280;8809;51.892;8.384;2024-02-26T01:02:44;99074.66;;;5.06;100.00
17383;BME280;8809;51.892;8.384;2024-02-26T01:05:12;99071.41;;;5.12;100.00
17383;BME280;8809;51.892;8.384;2024-02-26T01:07:39;99073.19;;;5.13;100.00
17383;BME280;8809;51.892;8.384;2024-02-26T01:10:08;99066.03;;;5.06;100.00
17383;BME280;8809;51.892;8.384;2024-02-26T01:12:36;99068.28;;;5.19;100.00
17383;BME280;8809;51.892;8.384;2024-02-26T01:15:03;99056.09;;;5.16;100.00
17383;BME280;8809;51.892;8.384;2024-02-26T01:17:30;99061.06;;;5.12;100.00
17383;BME280;8809;51.892;8.384;2024-02-26T01:19:58;99057.53;;;5.10;100.00
17383;BME280;8809;51.892;8.384;2024-02-26T01:22:25;99057.75;;;5.14;100.00
17383;BME280;8809;51.892;8.384;2024-02-26T01:24:52;99058.50;;;5.12;100.00
17383;BME280;8809;51.892;8.384;2024-02-26T01:27:21;99054.13;;;5.11;100.00
17383;BME280;8809;51.892;8.384;2024-02-26T01:29:52;99050.50;;;5.06;100.00
17383;BME280;8809;51.892;8.384;2024-02-26T01:32:19;99050.91;;;4.94;100.00
17383;BME280;8809;51.892;8.384;2024-02-26T01:34:46;99049.63;;;5.05;100.00
17383;BME280;8809;51.892;8.384;2024-02-26T01:37:13;99040.31;;;5.09;100.00
17383;BME280;8809;51.892;8.384;2024-02-26T01:39:40;99034.25;;;5.08;100.00
17383;BME280;8809;51.892;8.384;2024-02-26T01:42:07;99037.00;;;5.13;100.00
17383;BME280;8809;51.892;8.384;2024-02-26T01:44:36;99032.91;;;5.18;100.00
17383;BME280;8809;51.892;8.384;2024-02-26T01:47:04;99034.34;;;5.34;100.00
17383;BME280;8809;51.892;8.384;2024-02-26T01:49:32;99034.59;;;5.41;100.00
17383;BME280;8809;51.892;8.384;2024-02-26T01:51:59;99035.69;;;5.48;100.00
17383;BME280;8809;51.892;8.384;2024-02-26T01:54:27;99034.19;;;5.53;100.00
17383;BME280;8809;51.892;8.384;2024-02-26T01:56:55;99037.91;;;5.61;100.00
17383;BME280;8809;51.892;8.384;2024-02-26T01:59:22;99028.25;;;5.55;100.00
17383;BME280;8809;51.892;8.384;2024-02-26T02:01:54;99031.66;;;5.54;100.00
17383;BME280;8809;51.892;8.384;2024-02-26T02:04:23;99042.09;;;5.57;100.00
17383;BME280;8809;51.892;8.384;2024-02-26T02:06:50;99040.69;;;5.66;100.00
17383;BME280;8809;51.892;8.384;2024-02-26T02:09:18;99049.16;;;5.62;100.00
17383;BME280;8809;51.892;8.384;2024-02-26T02:11:46;99036.91;;;5.57;100.00
17383;BME280;8809;51.892;8.384;2024-02-26T02:14:15;99046.06;;;5.72;100.00
17383;BME280;8809;51.892;8.384;2024-02-26T02:16:42;99038.63;;;5.81;100.00
17383;BME280;8809;51.892;8.384;2024-02-26T02:19:11;99036.84;;;5.80;100.00
17383;BME280;8809;51.892;8.384;2024-02-26T02:21:39;99042.97;;;5.82;100.00
17383;BME280;8809;51.892;8.384;2024-02-26T02:24:06;99052.63;;;5.86;100.00
17383;BME280;8809;51.892;8.384;2024-02-26T02:26:33;99054.69;;;5.96;100.00
17383;BME280;8809;51.892;8.384;2024-02-26T02:29:02;99049.38;;;5.91;100.00
17383;BME280;8809;51.892;8.384;2024-02-26T02:31:29;99050.97;;;5.88;100.00
17383;BME280;8809;51.892;8.384;2024-02-26T02:33:57;99051.56;;;5.81;100.00
17383;BME280;8809;51.892;8.384;2024-02-26T02:36:24;99049.81;;;6.04;100.00
17383;BME280;8809;51.892;8.384;2024-02-26T02:38:52;99054.31;;;6.09;100.00
17383;BME280;8809;51.892;8.384;2024-02-26T02:41:19;99059.75;;;5.91;100.00
17383;BME280;8809;51.892;8.384;2024-02-26T02:43:47;99056.75;;;6.05;100.00
17383;BME280;8809;51.892;8.384;2024-02-26T02:46:14;99053.75;;;6.18;100.00
17383;BME280;8809;51.892;8.384;2024-02-26T02:48:42;99056.25;;;6.15;100.00
17383;BME280;8809;51.892;8.384;2024-02-26T02:51:10;99047.47;;;6.11;100.00
17383;BME280;8809;51.892;8.384;2024-02-26T02:53:37;99051.59;;;6.06;100.00
17383;BME280;8809;51.892;8.384;2024-02-26T02:56:06;99060.44;;;6.11;100.00
17383;BME280;8809;51.892;8.384;2024-02-26T02:58:33;99062.28;;;6.15;100.00
17383;BME280;8809;51.892;8.384;2024-02-26T03:01:00;99064.09;;;6.18;100.00
17383;BME280;8809;51.892;8.384;2024-02-26T03:03:27;99059.78;;;6.18;100.00
17383;BME280;8809;51.892;8.384;2024-02-26T03:05:54;99066.75;;;6.19;100.00
17383;BME280;8809;51.892;8.384;2024-02-26T03:08:22;99049.63;;;6.23;100.00
17383;BME280;8809;51.892;8.384;2024-02-26T03:10:49;99065.16;;;6.23;100.00
17383;BME280;8809;51.892;8.384;2024-02-26T03:13:18;99054.03;;;6.27;100.00
17383;BME280;8809;51.892;8.384;2024-02-26T03:15:45;99056.00;;;6.09;100.00
17383;BME280;8809;51.892;8.384;2024-02-26T03:18:13;99058.78;;;6.13;100.00
17383;BME280;8809;51.892;8.384;2024-02-26T03:20:40;99065.53;;;6.10;100.00
17383;BME280;8809;51.892;8.384;2024-02-26T03:23:08;99069.69;;;6.05;100.00
17383;BME280;8809;51.892;8.384;2024-02-26T03:25:38;99073.19;;;6.07;100.00
17383;BME280;8809;51.892;8.384;2024-02-26T03:28:06;99071.91;;;6.19;100.00
17383;BME280;8809;51.892;8.384;2024-02-26T03:30:34;99072.47;;;6.36;100.00
17383;BME280;8809;51.892;8.384;2024-02-26T03:33:02;99074.34;;;6.40;100.00
17383;BME280;8809;51.892;8.384;2024-02-26T03:35:29;99079.91;;;6.51;100.00
17383;BME280;8809;51.892;8.384;2024-02-26T03:37:56;99078.72;;;6.41;100.00
17383;BME280;8809;51.892;8.384;2024-02-26T03:40:24;99077.50;;;6.57;100.00
17383;BME280;8809;51.892;8.384;2024-02-26T03:42:51;99086.63;;;6.71;100.00
17383;BME280;8809;51.892;8.384;2024-02-26T03:45:19;99084.63;;;6.64;100.00
17383;BME280;8809;51.892;8.384;2024-02-26T03:47:48;99095.94;;;6.66;100.00
17383;BME280;8809;51.892;8.384;2024-02-26T03:50:15;99094.09;;;6.63;100.00
17383;BME280;8809;51.892;8.384;2024-02-26T03:52:43;99094.09;;;6.62;100.00
17383;BME280;8809;51.892;8.384;2024-02-26T03:55:11;99094.22;;;6.66;100.00
17383;BME280;8809;51.892;8.384;2024-02-26T03:57:38;99101.06;;;6.64;100.00
17383;BME280;8809;51.892;8.384;2024-02-26T04:00:06;99101.94;;;6.65;100.00
17383;BME280;8809;51.892;8.384;2024-02-26T04:02:34;99098.22;;;6.57;100.00
17383;BME280;8809;51.892;8.384;2024-02-26T04:05:03;99105.22;;;6.59;100.00
17383;BME280;8809;51.892;8.384;2024-02-26T04:07:31;99102.75;;;6.64;100.00
17383;BME280;8809;51.892;8.384;2024-02-26T04:09:58;99099.34;;;6.65;100.00
17383;BME280;8809;51.892;8.384;2024-02-26T04:12:25;99098.69;;;6.70;100.00
17383;BME280;8809;51.892;8.384;2024-02-26T04:14:53;99098.53;;;6.66;100.00
17383;BME280;8809;51.892;8.384;2024-02-26T04:17:20;99104.84;;;6.74;100.00
17383;BME280;8809;51.892;8.384;2024-02-26T04:19:47;99101.53;;;6.78;100.00
17383;BME280;8809;51.892;8.384;2024-02-26T04:22:16;99106.66;;;6.77;100.00
17383;BME280;8809;51.892;8.384;2024-02-26T04:24:44;99115.47;;;6.82;100.00
17383;BME280;8809;51.892;8.384;2024-02-26T04:27:11;99108.34;;;6.76;100.00
17383;BME280;8809;51.892;8.384;2024-02-26T04:29:38;99116.97;;;6.75;100.00
17383;BME280;8809;51.892;8.384;2024-02-26T04:32:06;99121.53;;;6.82;100.00
17383;BME280;8809;51.892;8.384;2024-02-26T04:34:33;99116.44;;;6.85;100.00
17383;BME280;8809;51.892;8.384;2024-02-26T04:37:00;99116.66;;;6.91;100.00
17383;BME280;8809;51.892;8.384;2024-02-26T04:39:29;99111.25;;;6.85;100.00
17383;BME280;8809;51.892;8.384;2024-02-26T04:41:56;99120.00;;;6.89;100.00
17383;BME280;8809;51.892;8.384;2024-02-26T04:44:24;99118.00;;;6.80;100.00
17383;BME280;8809;51.892;8.384;2024-02-26T04:46:52;99127.09;;;6.94;100.00
17383;BME280;8809;51.892;8.384;2024-02-26T04:49:19;99122.44;;;6.84;100.00
17383;BME280;8809;51.892;8.384;2024-02-26T04:51:47;99126.75;;;6.84;100.00
17383;BME280;8809;51.892;8.384;2024-02-26T04:54:15;99134.69;;;6.88;100.00
17383;BME280;8809;51.892;8.384;2024-02-26T04:56:45;99130.31;;;6.87;100.00
17383;BME280;8809;51.892;8.384;2024-02-26T04:59:12;99144.63;;;7.01;100.00
17383;BME280;8809;51.892;8.384;2024-02-26T05:01:39;99138.03;;;7.11;100.00
17383;BME280;8809;51.892;8.384;2024-02-26T05:04:07;99149.50;;;7.19;100.00
17383;BME280;8809;51.892;8.384;2024-02-26T05:06:36;99148.53;;;7.16;99.49
17383;BME280;8809;51.892;8.384;2024-02-26T05:09:04;99146.69;;;7.13;99.53
17383;BME280;8809;51.892;8.384;2024-02-26T05:11:31;99142.69;;;6.96;100.00
17383;BME280;8809;51.892;8.384;2024-02-26T05:14:00;99146.34;;;7.01;99.95
17383;BME280;8809;51.892;8.384;2024-02-26T05:16:27;99146.69;;;7.13;100.00
17383;BME280;8809;51.892;8.384;2024-02-26T05:18:57;99148.13;;;7.03;99.87
17383;BME280;8809;51.892;8.384;2024-02-26T05:21:24;99146.53;;;7.07;100.00
17383;BME280;8809;51.892;8.384;2024-02-26T05:23:51;99148.97;;;7.29;98.73
17383;BME280;8809;51.892;8.384;2024-02-26T05:26:22;99144.50;;;7.25;99.28
17383;BME280;8809;51.892;8.384;2024-02-26T05:28:51;99142.78;;;7.26;98.39
17383;BME280;8809;51.892;8.384;2024-02-26T05:31:20;99140.38;;;7.32;98.12
17383;BME280;8809;51.892;8.384;2024-02-26T05:33:47;99144.72;;;7.33;97.59
17383;BME280;8809;51.892;8.384;2024-02-26T05:36:18;99142.44;;;7.15;99.58
17383;BME280;8809;51.892;8.384;2024-02-26T05:38:47;99140.44;;;7.06;99.10
17383;BME280;8809;51.892;8.384;2024-02-26T05:41:15;99142.22;;;7.07;99.50
17383;BME280;8809;51.892;8.384;2024-02-26T05:43:42;99131.91;;;7.09;99.59
17383;BME280;8809;51.892;8.384;2024-02-26T05:46:09;99137.69;;;7.02;99.62
17383;BME280;8809;51.892;8.384;2024-02-26T05:48:38;99141.28;;;7.05;99.34
17383;BME280;8809;51.892;8.384;2024-02-26T05:51:05;99144.81;;;7.07;98.15
17383;BME280;8809;51.892;8.384;2024-02-26T05:53:32;99143.88;;;7.05;98.53
17383;BME280;8809;51.892;8.384;2024-02-26T05:56:00;99144.16;;;7.15;97.91
17383;BME280;8809;51.892;8.384;2024-02-26T05:58:27;99148.69;;;7.20;97.12
17383;BME280;8809;51.892;8.384;2024-02-26T06:00:55;99152.94;;;7.18;97.25
17383;BME280;8809;51.892;8.384;2024-02-26T06:03:22;99149.56;;;7.21;97.69
17383;BME280;8809;51.892;8.384;2024-02-26T06:05:51;99155.56;;;7.20;97.58
17383;BME280;8809;51.892;8.384;2024-02-26T06:08:18;99148.56;;;7.17;97.28
17383;BME280;8809;51.892;8.384;2024-02-26T06:10:45;99149.16;;;7.08;98.49
17383;BME280;8809;51.892;8.384;2024-02-26T06:13:12;99142.50;;;7.17;97.26
17383;BME280;8809;51.892;8.384;2024-02-26T06:15:39;99146.66;;;7.12;97.66
17383;BME280;8809;51.892;8.384;2024-02-26T06:18:06;99142.78;;;7.26;96.41
17383;BME280;8809;51.892;8.384;2024-02-26T06:20:34;99148.88;;;7.26;96.12
17383;BME280;8809;51.892;8.384;2024-02-26T06:23:02;99154.22;;;7.32;96.04
17383;BME280;8809;51.892;8.384;2024-02-26T06:25:30;99150.72;;;7.30;95.94
17383;BME280;8809;51.892;8.384;2024-02-26T06:27:57;99153.34;;;7.32;95.73
17383;BME280;8809;51.892;8.384;2024-02-26T06:30:24;99157.75;;;7.34;95.63
17383;BME280;8809;51.892;8.384;2024-02-26T06:32:52;99155.09;;;7.33;95.85
17383;BME280;8809;51.892;8.384;2024-02-26T06:35:19;99155.91;;;7.30;96.31
17383;BME280;8809;51.892;8.384;2024-02-26T06:37:46;99156.00;;;7.33;96.29
17383;BME280;8809;51.892;8.384;2024-02-26T06:40:17;99155.06;;;7.31;97.25
17383;BME280;8809;51.892;8.384;2024-02-26T06:42:45;99151.69;;;7.34;96.82
17383;BME280;8809;51.892;8.384;2024-02-26T06:45:12;99151.00;;;7.39;95.89
17383;BME280;8809;51.892;8.384;2024-02-26T06:47:39;99157.75;;;7.34;96.87
17383;BME280;8809;51.892;8.384;2024-02-26T06:50:06;99161.19;;;7.33;97.01
17383;BME280;8809;51.892;8.384;2024-02-26T06:52:34;99169.91;;;7.35;97.08
17383;BME280;8809;51.892;8.384;2024-02-26T06:55:01;99188.09;;;7.37;96.50
17383;BME280;8809;51.892;8.384;2024-02-26T06:57:30;99176.69;;;7.32;96.76
17383;BME280;8809;51.892;8.384;2024-02-26T06:59:57;99176.78;;;7.35;97.09
17383;BME280;8809;51.892;8.384;2024-02-26T07:02:25;99183.81;;;7.37;98.04
17383;BME280;8809;51.892;8.384;2024-02-26T07:04:53;99184.88;;;7.44;97.29
17383;BME280;8809;51.892;8.384;2024-02-26T07:07:21;99184.88;;;7.44;97.29
17383;BME280;8809;51.892;8.384;2024-02-26T07:09:49;99190.09;;;7.45;97.44
17383;BME280;8809;51.892;8.384;2024-02-26T07:12:17;99188.22;;;7.40;97.78
17383;BME280;8809;51.892;8.384;2024-02-26T07:14:46;99192.53;;;7.39;98.05
17383;BME280;8809;51.892;8.384;2024-02-26T07:17:14;99184.75;;;7.41;97.93
17383;BME280;8809;51.892;8.384;2024-02-26T07:19:42;99195.28;;;7.45;97.98
17383;BME280;8809;51.892;8.384;2024-02-26T07:22:09;99202.09;;;7.42;97.74
17383;BME280;8809;51.892;8.384;2024-02-26T07:24:36;99202.09;;;7.42;98.63
17383;BME280;8809;51.892;8.384;2024-02-26T07:27:04;99198.72;;;7.44;97.46
17383;BME280;8809;51.892;8.384;2024-02-26T07:29:31;99205.50;;;7.41;97.67
17383;BME280;8809;51.892;8.384;2024-02-26T07:32:00;99205.50;;;7.41;97.63
17383;BME280;8809;51.892;8.384;2024-02-26T07:34:30;99212.69;;;7.48;97.21
17383;BME280;8809;51.892;8.384;2024-02-26T07:36:57;99209.34;;;7.52;97.16
17383;BME280;8809;51.892;8.384;2024-02-26T07:39:28;99220.59;;;7.53;97.52
17383;BME280;8809;51.892;8.384;2024-02-26T07:41:55;99213.84;;;7.58;98.01
17383;BME280;8809;51.892;8.384;2024-02-26T07:44:23;99210.59;;;7.65;97.90
17383;BME280;8809;51.892;8.384;2024-02-26T07:46:51;99219.09;;;7.59;97.87
17383;BME280;8809;51.892;8.384;2024-02-26T07:49:19;99219.91;;;7.58;98.70
17383;BME280;8809;51.892;8.384;2024-02-26T07:51:46;99227.06;;;7.65;97.43
17383;BME280;8809;51.892;8.384;2024-02-26T07:54:13;99234.94;;;7.68;97.73
17383;BME280;8809;51.892;8.384;2024-02-26T07:56:41;99246.22;;;7.70;97.56
17383;BME280;8809;51.892;8.384;2024-02-26T07:59:09;99247.28;;;7.75;97.43
17383;BME280;8809;51.892;8.384;2024-02-26T08:01:36;99249.63;;;7.68;97.59
17383;BME280;8809;51.892;8.384;2024-02-26T08:04:04;99258.94;;;7.90;96.00
17383;BME280;8809;51.892;8.384;2024-02-26T08:06:33;99257.09;;;7.86;96.57
17383;BME280;8809;51.892;8.384;2024-02-26T08:09:00;99260.53;;;7.85;97.64
17383;BME280;8809;51.892;8.384;2024-02-26T08:11:27;99265.41;;;8.02;96.82
17383;BME280;8809;51.892;8.384;2024-02-26T08:13:57;99270.44;;;7.98;96.79
17383;BME280;8809;51.892;8.384;2024-02-26T08:16:25;99262.75;;;8.01;97.53
17383;BME280;8809;51.892;8.384;2024-02-26T08:18:52;99268.97;;;8.06;97.30
17383;BME280;8809;51.892;8.384;2024-02-26T08:21:20;99272.53;;;8.09;97.20
17383;BME280;8809;51.892;8.384;2024-02-26T08:23:48;99271.91;;;8.18;96.36
17383;BME280;8809;51.892;8.384;2024-02-26T08:26:15;99284.00;;;8.16;96.46
17383;BME280;8809;51.892;8.384;2024-02-26T08:28:42;99289.09;;;8.13;97.24
17383;BME280;8809;51.892;8.384;2024-02-26T08:31:10;99290.03;;;8.15;97.29
17383;BME280;8809;51.892;8.384;2024-02-26T08:33:37;99291.25;;;8.28;96.15
17383;BME280;8809;51.892;8.384;2024-02-26T08:36:04;99286.94;;;8.28;96.44
17383;BME280;8809;51.892;8.384;2024-02-26T08:38:33;99292.53;;;8.12;97.72
17383;BME280;8809;51.892;8.384;2024-02-26T08:41:03;99290.09;;;8.18;98.21
17383;BME280;8809;51.892;8.384;2024-02-26T08:43:31;99305.84;;;8.23;98.23
17383;BME280;8809;51.892;8.384;2024-02-26T08:45:58;99301.44;;;8.20;98.80
17383;BME280;8809;51.892;8.384;2024-02-26T08:48:28;99300.81;;;8.29;98.73
17383;BME280;8809;51.892;8.384;2024-02-26T08:50:56;99302.66;;;8.31;98.77
17383;BME280;8809;51.892;8.384;2024-02-26T08:53:23;99299.16;;;8.31;98.91
17383;BME280;8809;51.892;8.384;2024-02-26T08:55:52;99302.00;;;8.38;98.53
17383;BME280;8809;51.892;8.384;2024-02-26T08:58:21;99303.09;;;8.46;98.89
17383;BME280;8809;51.892;8.384;2024-02-26T09:00:48;99305.91;;;8.52;97.98
17383;BME280;8809;51.892;8.384;2024-02-26T09:03:16;99307.97;;;8.66;97.95
17383;BME280;8809;51.892;8.384;2024-02-26T09:05:44;99314.22;;;8.71;97.17
17383;BME280;8809;51.892;8.384;2024-02-26T09:08:11;99327.31;;;8.74;97.17
17383;BME280;8809;51.892;8.384;2024-02-26T09:10:39;99323.09;;;8.79;97.39
17383;BME280;8809;51.892;8.384;2024-02-26T09:13:06;99320.00;;;8.92;96.30
17383;BME280;8809;51.892;8.384;2024-02-26T09:15:35;99320.06;;;8.95;94.83
17383;BME280;8809;51.892;8.384;2024-02-26T09:18:02;99321.09;;;9.00;95.68
17383;BME280;8809;51.892;8.384;2024-02-26T09:20:29;99314.44;;;9.10;95.25
17383;BME280;8809;51.892;8.384;2024-02-26T09:22:56;99317.16;;;9.16;94.77
17383;BME280;8809;51.892;8.384;2024-02-26T09:25:23;99310.09;;;9.10;95.81
17383;BME280;8809;51.892;8.384;2024-02-26T09:27:50;99314.53;;;9.14;95.74
17383;BME280;8809;51.892;8.384;2024-02-26T09:30:17;99319.66;;;9.11;95.84
17383;BME280;8809;51.892;8.384;2024-02-26T09:32:48;99320.06;;;9.26;95.38
17383;BME280;8809;51.892;8.384;2024-02-26T09:35:15;99318.53;;;9.35;95.47
17383;BME280;8809;51.892;8.384;2024-02-26T09:37:45;99318.75;;;9.44;94.64
17383;BME280;8809;51.892;8.384;2024-02-26T09:40:15;99320.53;;;9.45;94.39
17383;BME280;8809;51.892;8.384;2024-02-26T09:42:44;99315.38;;;9.46;95.29
17383;BME280;8809;51.892;8.384;2024-02-26T09:45:22;99325.81;;;9.48;94.24
17383;BME280;8809;51.892;8.384;2024-02-26T09:47:55;99328.69;;;9.58;94.83
17383;BME280;8809;51.892;8.384;2024-02-26T09:50:23;99331.34;;;9.60;93.21
17383;BME280;8809;51.892;8.384;2024-02-26T09:52:50;99322.94;;;9.72;93.61
17383;BME280;8809;51.892;8.384;2024-02-26T09:55:18;99328.13;;;9.70;95.23
17383;BME280;8809;51.892;8.384;2024-02-26T09:57:48;99336.16;;;9.79;94.78
17383;BME280;8809;51.892;8.384;2024-02-26T10:00:18;99351.13;;;9.88;94.14
17383;BME280;8809;51.892;8.384;2024-02-26T10:02:48;99342.66;;;9.96;94.10
17383;BME280;8809;51.892;8.384;2024-02-26T10:05:17;99347.94;;;9.99;93.84
17383;BME280;8809;51.892;8.384;2024-02-26T10:07:45;99342.78;;;10.02;94.50
17383;BME280;8809;51.892;8.384;2024-02-26T10:10:13;99348.16;;;10.09;94.63
17383;BME280;8809;51.892;8.384;2024-02-26T10:12:41;99341.22;;;10.11;93.18
17383;BME280;8809;51.892;8.384;2024-02-26T10:15:08;99350.06;;;10.16;94.04
17383;BME280;8809;51.892;8.384;2024-02-26T10:17:35;99353.59;;;10.18;92.97
17383;BME280;8809;51.892;8.384;2024-02-26T10:20:14;99356.25;;;10.21;92.75
17383;BME280;8809;51.892;8.384;2024-02-26T10:22:45;99353.75;;;10.24;94.13
17383;BME280;8809;51.892;8.384;2024-02-26T10:25:12;99355.63;;;10.31;94.31
17383;BME280;8809;51.892;8.384;2024-02-26T10:27:40;99361.72;;;10.31;94.84
17383;BME280;8809;51.892;8.384;2024-02-26T10:30:17;99361.94;;;10.40;94.89
17383;BME280;8809;51.892;8.384;2024-02-26T10:32:49;99367.59;;;10.60;93.71
17383;BME280;8809;51.892;8.384;2024-02-26T10:35:16;99370.06;;;10.54;93.08
17383;BME280;8809;51.892;8.384;2024-02-26T10:37:46;99374.63;;;10.64;90.57
17383;BME280;8809;51.892;8.384;2024-02-26T10:40:14;99367.81;;;10.71;90.11
17383;BME280;8809;51.892;8.384;2024-02-26T10:42:42;99375.47;;;10.63;90.32
17383;BME280;8809;51.892;8.384;2024-02-26T10:45:10;99378.31;;;10.74;92.21
17383;BME280;8809;51.892;8.384;2024-02-26T10:47:39;99376.63;;;10.77;92.08
17383;BME280;8809;51.892;8.384;2024-02-26T10:50:07;99389.75;;;10.81;90.20
17383;BME280;8809;51.892;8.384;2024-02-26T10:52:36;99392.28;;;10.76;91.49
17383;BME280;8809;51.892;8.384;2024-02-26T10:55:06;99388.75;;;10.74;93.68
17383;BME280;8809;51.892;8.384;2024-02-26T10:57:35;99397.66;;;10.84;92.31
17383;BME280;8809;51.892;8.384;2024-02-26T11:00:07;99402.06;;;10.88;90.18
17383;BME280;8809;51.892;8.384;2024-02-26T11:02:38;99397.03;;;10.97;92.07
17383;BME280;8809;51.892;8.384;2024-02-26T11:05:11;99402.41;;;11.03;90.73
17383;BME280;8809;51.892;8.384;2024-02-26T11:07:40;99401.59;;;11.07;91.32
17383;BME280;8809;51.892;8.384;2024-02-26T11:10:11;99399.84;;;11.04;89.93
17383;BME280;8809;51.892;8.384;2024-02-26T11:12:39;99404.13;;;11.02;91.37
17383;BME280;8809;51.892;8.384;2024-02-26T11:15:09;99403.31;;;11.06;89.64
17383;BME280;8809;51.892;8.384;2024-02-26T11:17:38;99400.72;;;11.06;90.86
17383;BME280;8809;51.892;8.384;2024-02-26T11:20:07;99409.53;;;11.11;89.27
17383;BME280;8809;51.892;8.384;2024-02-26T11:22:36;99411.28;;;11.11;88.94
17383;BME280;8809;51.892;8.384;2024-02-26T11:25:04;99418.63;;;11.30;88.02
17383;BME280;8809;51.892;8.384;2024-02-26T11:27:39;99413.94;;;11.15;89.10
17383;BME280;8809;51.892;8.384;2024-02-26T11:30:10;99423.72;;;11.24;89.01
17383;BME280;8809;51.892;8.384;2024-02-26T11:32:38;99422.84;;;11.25;89.12
17383;BME280;8809;51.892;8.384;2024-02-26T11:35:06;99418.50;;;11.24;88.91
17383;BME280;8809;51.892;8.384;2024-02-26T11:37:36;99424.66;;;11.28;88.01
17383;BME280;8809;51.892;8.384;2024-02-26T11:40:04;99423.75;;;11.27;87.34
17383;BME280;8809;51.892;8.384;2024-02-26T11:42:43;99415.44;;;11.46;86.65
17383;BME280;8809;51.892;8.384;2024-02-26T11:48:13;99413.31;;;11.27;88.23
17383;BME280;8809;51.892;8.384;2024-02-26T11:50:41;99408.91;;;11.23;87.75
17383;BME280;8809;51.892;8.384;2024-02-26T11:53:23;99408.84;;;11.20;89.48
17383;BME280;8809;51.892;8.384;2024-02-26T11:58:59;99420.91;;;11.15;87.80
17383;BME280;8809;51.892;8.384;2024-02-26T12:01:39;99421.81;;;11.17;87.65
17383;BME280;8809;51.892;8.384;2024-02-26T12:04:08;99422.88;;;11.27;90.17
17383;BME280;8809;51.892;8.384;2024-02-26T12:06:42;99418.78;;;11.39;88.55
17383;BME280;8809;51.892;8.384;2024-02-26T12:09:09;99426.66;;;11.41;88.71
17383;BME280;8809;51.892;8.384;2024-02-26T12:11:40;99432.63;;;11.35;88.21
17383;BME280;8809;51.892;8.384;2024-02-26T12:14:10;99427.25;;;11.28;87.85
17383;BME280;8809;51.892;8.384;2024-02-26T12:16:38;99426.38;;;11.27;89.89
17383;BME280;8809;51.892;8.384;2024-02-26T12:19:07;99422.06;;;11.29;89.88
17383;BME280;8809;51.892;8.384;2024-02-26T12:21:37;99425.84;;;11.43;89.22
17383;BME280;8809;51.892;8.384;2024-02-26T12:24:10;99429.34;;;11.45;89.03
17383;BME280;8809;51.892;8.384;2024-02-26T12:26:38;99431.94;;;11.45;87.54
17383;BME280;8809;51.892;8.384;2024-02-26T12:29:06;99438.16;;;11.50;87.68
17383;BME280;8809;51.892;8.384;2024-02-26T12:31:35;99432.06;;;11.50;88.20
17383;BME280;8809;51.892;8.384;2024-02-26T12:34:04;99436.34;;;11.46;88.67
17383;BME280;8809;51.892;8.384;2024-02-26T12:36:33;99435.31;;;11.38;87.03
17383;BME280;8809;51.892;8.384;2024-02-26T12:39:02;99431.63;;;11.29;89.48
17383;BME280;8809;51.892;8.384;2024-02-26T12:41:31;99440.28;;;11.26;88.01
17383;BME280;8809;51.892;8.384;2024-02-26T12:44:01;99442.06;;;11.29;89.76
17383;BME280;8809;51.892;8.384;2024-02-26T12:46:29;99440.31;;;11.28;90.21
17383;BME280;8809;51.892;8.384;2024-02-26T12:48:58;99448.19;;;11.29;90.19
17383;BME280;8809;51.892;8.384;2024-02-26T12:51:26;99441.78;;;11.15;89.98
17383;BME280;8809;51.892;8.384;2024-02-26T12:53:55;99450.59;;;11.20;88.63
17383;BME280;8809;51.892;8.384;2024-02-26T12:56:23;99454.28;;;11.30;87.48
17383;BME280;8809;51.892;8.384;2024-02-26T12:58:53;99454.22;;;11.27;87.56
17383;BME280;8809;51.892;8.384;2024-02-26T13:01:23;99448.31;;;11.37;87.23
17383;BME280;8809;51.892;8.384;2024-02-26T13:03:52;99452.31;;;11.18;85.98
17383;BME280;8809;51.892;8.384;2024-02-26T13:06:22;99466.16;;;11.15;86.51
17383;BME280;8809;51.892;8.384;2024-02-26T13:08:56;99475.72;;;11.15;84.91
17383;BME280;8809;51.892;8.384;2024-02-26T13:11:25;99472.22;;;11.13;85.71
17383;BME280;8809;51.892;8.384;2024-02-26T13:13:54;99469.59;;;11.13;87.13
17383;BME280;8809;51.892;8.384;2024-02-26T13:16:24;99473.09;;;11.15;86.97
17383;BME280;8809;51.892;8.384;2024-02-26T13:18:52;99485.19;;;11.10;86.10
17383;BME280;8809;51.892;8.384;2024-02-26T13:21:18;99491.81;;;10.96;83.22
17383;BME280;8809;51.892;8.384;2024-02-26T13:23:55;99493.78;;;11.04;87.58
17383;BME280;8809;51.892;8.384;2024-02-26T13:26:22;99499.81;;;11.02;87.04